Zeigler, IL (62999)

5:03 AM CDT on October 24, 2014 (GMT -0500)
Off the circle | Change Station
CLOSE
Current Station
Personal Weather Station
Location: Zeigler, IL
Elevation: 390 ft
Nearby Weather Stations

Elev 390 ft 37.90 °N, 89.05 °W | Updated 5 minutes ago

Overcast
Overcast
46.6 °F
Feels Like 47 °F
N
0.0
Wind Variable Wind from SSW

Today
High -- | Low -- °F
--% Chance of Precip.
Yesterday
High -- | Low -- °F
Precip. -- in
7:13 AM 6:06 PM
New Moon, 0% visible
Pressure 30.11 in
Visibility 10.0 miles
Clouds Scattered Clouds 2700 ft
Scattered Clouds 3800 ft
Mostly Cloudy 5500 ft
Windchill 47 °F
Dew Point 45 °F
Humidity 94%
Rainfall 0.00 in
Snow Depth Not available.
UV 0 out of 12
Pollen 1.50 out of 12
Air Quality Not available.
Flu Activity No Activity
METAR KMWA 240955Z AUTO 19004KT 10SM SCT027 SCT038 BKN055 09/07 A3011 RMK AO2

More Conditions Fewer Conditions

Pressure 30.11 in
Visibility 10.0 miles
Clouds Scattered Clouds 2700 ft
Scattered Clouds 3800 ft
Mostly Cloudy 5500 ft
Windchill 47 °F
Dew Point 45 °F
Humidity 94%
Rainfall 0.00 in
Snow Depth Not available.
UV 0 out of 12
Pollen 1.50 out of 12
Air Quality Not available.
Flu Activity No Activity
METAR KMWA 240955Z AUTO 19004KT 10SM SCT027 SCT038 BKN055 09/07 A3011 RMK AO2

More Conditions Fewer Conditions

10-Day Weather Forecast

Almanac

Astronomy

Oct. 24, 2014 Rise Set
Actual Time 7:13 AM CDT 6:06 PM CDT
Civil Twilight 6:46 AM CDT 6:33 PM CDT
Nautical Twilight 6:15 AM CDT 7:04 PM CDT
Astronomical Twilight 5:45 AM CDT 7:34 PM CDT
Moon 7:51 AM CDT 6:47 PM CDT
Length of Visible Light 11h 46m
Length of Day
10h 53m
Tomorrow will be 2m 16s shorter.
New Moon, 0% of the Moon is Illuminated
Today
New Moon
Oct 30
First Quarter
Nov 6
Full
Nov 14
Last Quarter
Nov 22
New

Today's Extremes

State Highs State Lows

Community

WunderPhotos

Upload Photos

1,764,513 photos uploaded!

WunderBlogs® & News

Nearby

Snow Depth

Station Depth Elevation
No new snow has been reported.

Earthquake Activity

City Distance Mag. Time & Date
No recent earthquake activity has been reported nearby.
Minimum magnitude displayed is 2.5.

Coastal Water Temperatures

Place Temperature
No Stations Reporting

Nearby Weather Stations